Wetterdaten: Woche 04.04.22 - 10.04.22 (KW14)
Datum Zeit Temp. Aussen Temp. o. S. Temp +5cm Feuchte Auss Luftdruck Regen Sonnenschein Regendauer Solar Windben Empfang
04.04.2022 00:00 2,6 C 1,6 C -1,3 C 84 % 1020,9 hPa 0,0 l/m 0,00 h 0,00 h 0 W/m 4,3 km/h (1 Bft) 92,22 %
04.04.2022 01:00 2,2 C 1,1 C -1,7 C 86 % 1020,4 hPa 0,0 l/m 0,00 h 0,00 h 0 W/m 4,3 km/h (1 Bft) 96,98 %
04.04.2022 02:00 1,8 C 0,7 C -2,1 C 88 % 1020,0 hPa 0,0 l/m 0,00 h 0,00 h 0 W/m 5,6 km/h (1 Bft) 99,36 %
04.04.2022 03:00 1,7 C 1,0 C -2,0 C 89 % 1019,3 hPa 0,0 l/m 0,00 h 0,00 h 0 W/m 11,4 km/h (2 Bft) 94,30 %
04.04.2022 04:00 1,6 C 1,1 C -2,2 C 88 % 1018,4 hPa 0,0 l/m 0,00 h 0,00 h 0 W/m 13,7 km/h (3 Bft) 97,93 %
04.04.2022 05:00 2,0 C 1,5 C -1,7 C 87 % 1017,4 hPa 0,0 l/m 0,00 h 0,00 h 0 W/m 20,5 km/h (4 Bft) 96,11 %
04.04.2022 06:00 2,2 C 1,7 C -1,7 C 85 % 1016,4 hPa 0,0 l/m 0,00 h 0,00 h 0 W/m 21,1 km/h (4 Bft) 97,35 %
04.04.2022 07:00 2,6 C 2,0 C -1,2 C 84 % 1015,6 hPa 0,0 l/m 0,00 h 0,00 h 12 W/m 22,8 km/h (4 Bft) 97,44 %
04.04.2022 08:00 3,3 C 3,1 C -0,3 C 83 % 1014,7 hPa 0,0 l/m 0,20 h 0,00 h 83 W/m 27,0 km/h (4 Bft) 97,22 %
04.04.2022 09:00 4,7 C 4,7 C 1,2 C 80 % 1013,6 hPa 0,0 l/m 0,43 h 0,00 h 169 W/m 33,0 km/h (5 Bft) 97,51 %
04.04.2022 10:00 6,0 C 6,3 C 2,6 C 76 % 1012,7 hPa 0,0 l/m 0,37 h 0,00 h 231 W/m 31,1 km/h (5 Bft) 98,36 %
04.04.2022 11:00 6,7 C 6,6 C 2,9 C 74 % 1011,7 hPa 0,0 l/m 0,00 h 0,23 h 188 W/m 32,7 km/h (5 Bft) 96,44 %
04.04.2022 12:00 5,8 C 5,4 C 1,4 C 84 % 1010,8 hPa 0,2 l/m 0,00 h 0,90 h 128 W/m 31,1 km/h (5 Bft) 94,99 %
04.04.2022 13:00 5,1 C 4,1 C 0,6 C 90 % 1010,3 hPa 1,0 l/m 0,00 h 1,00 h 81 W/m 31,2 km/h (5 Bft) 98,37 %
04.04.2022 14:00 4,8 C 4,1 C 0,6 C 92 % 1009,7 hPa 0,4 l/m 0,00 h 1,00 h 73 W/m 34,6 km/h (5 Bft) 92,65 %
04.04.2022 15:00 4,8 C 4,0 C 0,6 C 92 % 1009,0 hPa 0,0 l/m 0,00 h 1,00 h 73 W/m 34,9 km/h (5 Bft) 88,47 %
04.04.2022 16:00 4,8 C 4,1 C 0,8 C 93 % 1008,3 hPa 0,2 l/m 0,00 h 1,00 h 53 W/m 32,4 km/h (5 Bft) 96,17 %
04.04.2022 17:00 5,1 C 4,4 C 1,1 C 94 % 1007,7 hPa 0,2 l/m 0,00 h 1,00 h 47 W/m 29,8 km/h (5 Bft) 97,83 %
04.04.2022 18:00 5,5 C 5,0 C 1,7 C 94 % 1007,2 hPa 0,0 l/m 0,00 h 0,87 h 33 W/m 29,1 km/h (5 Bft) 96,69 %
04.04.2022 19:00 5,6 C 5,0 C 1,9 C 94 % 1006,9 hPa 0,0 l/m 0,00 h 1,00 h 14 W/m 26,0 km/h (4 Bft) 97,78 %
04.04.2022 20:00 5,8 C 5,1 C 2,3 C 95 % 1006,7 hPa 0,0 l/m 0,00 h 0,83 h 0 W/m 25,4 km/h (4 Bft) 96,57 %
04.04.2022 21:00 6,2 C 5,6 C 2,8 C 96 % 1006,5 hPa 0,2 l/m 0,00 h 0,00 h 0 W/m 27,7 km/h (4 Bft) 97,30 %
04.04.2022 22:00 6,5 C 5,7 C 3,2 C 97 % 1006,4 hPa 0,2 l/m 0,00 h 0,20 h 0 W/m 22,2 km/h (4 Bft) 95,12 %
04.04.2022 23:00 6,9 C 6,1 C 3,6 C 97 % 1005,8 hPa 0,2 l/m 0,00 h 0,33 h 0 W/m 27,5 km/h (4 Bft) 98,37 %
05.04.2022 00:00 7,3 C 6,7 C 4,2 C 97 % 1005,4 hPa 0,4 l/m 0,00 h 0,30 h 0 W/m 24,8 km/h (4 Bft) 94,87 %
05.04.2022 01:00 7,7 C 6,8 C 4,7 C 98 % 1005,3 hPa 0,6 l/m 0,00 h 0,93 h 0 W/m 23,2 km/h (4 Bft) 98,30 %
05.04.2022 02:00 8,1 C 7,2 C 5,1 C 98 % 1005,3 hPa 0,8 l/m 0,00 h 0,67 h 0 W/m 21,4 km/h (4 Bft) 98,36 %
05.04.2022 03:00 8,4 C 7,5 C 5,6 C 98 % 1005,4 hPa 1,0 l/m 0,00 h 0,70 h 0 W/m 18,8 km/h (3 Bft) 93,62 %
05.04.2022 04:00 8,7 C 7,8 C 6,0 C 99 % 1005,4 hPa 1,2 l/m 0,00 h 0,90 h 0 W/m 16,8 km/h (3 Bft) 98,36 %
05.04.2022 05:00 9,0 C 8,2 C 6,4 C 99 % 1005,5 hPa 1,0 l/m 0,00 h 0,97 h 0 W/m 13,6 km/h (3 Bft) 98,67 %
05.04.2022 06:00 9,3 C 8,3 C 6,7 C 99 % 1005,6 hPa 0,8 l/m 0,00 h 1,00 h 0 W/m 11,9 km/h (2 Bft) 93,87 %
05.04.2022 07:00 9,3 C 8,3 C 6,7 C 99 % 1005,7 hPa 0,6 l/m 0,00 h 1,00 h 14 W/m 15,0 km/h (3 Bft) 99,45 %
05.04.2022 08:00 9,5 C 8,8 C 7,2 C 99 % 1006,0 hPa 0,4 l/m 0,00 h 0,63 h 33 W/m 14,3 km/h (3 Bft) 96,49 %
05.04.2022 09:00 9,6 C 9,1 C 7,2 C 99 % 1006,3 hPa 0,0 l/m 0,00 h 0,03 h 63 W/m 14,6 km/h (3 Bft) 97,52 %
05.04.2022 10:00 10,0 C 9,6 C 7,8 C 99 % 1006,5 hPa 0,0 l/m 0,00 h 0,00 h 82 W/m 14,6 km/h (3 Bft) 97,79 %
05.04.2022 11:00 10,3 C 10,0 C 7,8 C 98 % 1006,7 hPa 0,2 l/m 0,00 h 0,33 h 89 W/m 13,1 km/h (3 Bft) 94,95 %
05.04.2022 12:00 11,0 C 11,6 C 8,7 C 97 % 1006,8 hPa 0,2 l/m 0,23 h 0,13 h 292 W/m 15,4 km/h (3 Bft) 97,65 %
05.04.2022 13:00 12,3 C 12,9 C 9,2 C 93 % 1006,7 hPa 0,0 l/m 0,47 h 0,07 h 310 W/m 19,2 km/h (3 Bft) 99,37 %
05.04.2022 14:00 11,7 C 11,4 C 8,5 C 94 % 1006,7 hPa 1,2 l/m 0,17 h 0,77 h 174 W/m 12,8 km/h (3 Bft) 95,25 %
05.04.2022 15:00 11,8 C 11,7 C 8,6 C 95 % 1006,6 hPa 0,2 l/m 0,03 h 0,57 h 168 W/m 14,6 km/h (3 Bft) 97,04 %
05.04.2022 16:00 12,0 C 12,0 C 8,2 C 92 % 1006,3 hPa 0,0 l/m 0,03 h 0,00 h 137 W/m 17,3 km/h (3 Bft) 98,64 %
05.04.2022 17:00 11,6 C 11,0 C 7,7 C 92 % 1006,3 hPa 0,0 l/m 0,00 h 0,47 h 56 W/m 18,3 km/h (3 Bft) 94,44 %
05.04.2022 18:00 11,4 C 11,1 C 8,1 C 94 % 1006,3 hPa 0,0 l/m 0,00 h 0,00 h 55 W/m 12,3 km/h (3 Bft) 98,31 %
05.04.2022 19:00 11,6 C 11,1 C 8,3 C 92 % 1006,0 hPa 0,0 l/m 0,00 h 0,00 h 17 W/m 10,7 km/h (2 Bft) 97,02 %
05.04.2022 20:00 11,0 C 9,8 C 7,3 C 93 % 1005,9 hPa 3,4 l/m 0,00 h 0,80 h 0 W/m 7,3 km/h (2 Bft) 95,59 %
05.04.2022 21:00 10,2 C 9,1 C 7,0 C 96 % 1006,4 hPa 5,6 l/m 0,00 h 0,70 h 0 W/m 11,9 km/h (2 Bft) 96,37 %
05.04.2022 22:00 9,8 C 9,2 C 6,7 C 97 % 1006,5 hPa 0,0 l/m 0,00 h 0,00 h 0 W/m 10,1 km/h (2 Bft) 97,91 %
05.04.2022 23:00 9,6 C 8,6 C 6,7 C 96 % 1006,4 hPa 0,4 l/m 0,00 h 0,23 h 0 W/m 8,8 km/h (2 Bft) 88,72 %
06.04.2022 00:00 9,2 C 8,3 C 6,2 C 96 % 1006,0 hPa 0,2 l/m 0,00 h 0,00 h 0 W/m 13,5 km/h (3 Bft) 96,69 %
06.04.2022 01:00 9,2 C 8,3 C 6,1 C 94 % 1005,8 hPa 0,0 l/m 0,00 h 0,00 h 0 W/m 18,7 km/h (3 Bft) 96,80 %
06.04.2022 02:00 9,3 C 8,3 C 5,8 C 92 % 1005,5 hPa 0,0 l/m 0,00 h 0,00 h 0 W/m 17,9 km/h (3 Bft) 98,36 %
06.04.2022 03:00 9,2 C 8,3 C 5,6 C 90 % 1005,1 hPa 0,0 l/m 0,00 h 0,00 h 0 W/m 18,2 km/h (3 Bft) 95,65 %
06.04.2022 04:00 9,2 C 8,3 C 5,3 C 89 % 1004,8 hPa 0,0 l/m 0,00 h 0,00 h 0 W/m 17,6 km/h (3 Bft) 99,18 %
06.04.2022 05:00 9,0 C 8,2 C 5,9 C 88 % 1004,5 hPa 0,0 l/m 0,00 h 0,00 h 0 W/m 18,2 km/h (3 Bft) 97,30 %
06.04.2022 06:00 8,8 C 8,1 C 5,8 C 86 % 1004,2 hPa 0,0 l/m 0,00 h 0,00 h 0 W/m 17,1 km/h (3 Bft) 97,09 %
06.04.2022 07:00 9,1 C 8,3 C 5,9 C 86 % 1004,1 hPa 0,0 l/m 0,00 h 0,00 h 12 W/m 21,6 km/h (4 Bft) 96,28 %
06.04.2022 08:00 8,9 C 8,3 C 5,6 C 87 % 1004,0 hPa 0,0 l/m 0,00 h 0,00 h 26 W/m 22,4 km/h (4 Bft) 96,84 %
06.04.2022 09:00 8,8 C 8,4 C 5,9 C 88 % 1003,7 hPa 0,0 l/m 0,00 h 0,00 h 81 W/m 26,9 km/h (4 Bft) 96,81 %
06.04.2022 10:00 9,4 C 9,4 C 6,6 C 84 % 1003,3 hPa 0,0 l/m 0,00 h 0,00 h 154 W/m 26,4 km/h (4 Bft) 99,38 %
06.04.2022 11:00 10,0 C 10,0 C 6,9 C 79 % 1003,2 hPa 0,0 l/m 0,00 h 0,00 h 147 W/m 27,7 km/h (4 Bft) 95,12 %
06.04.2022 12:00 10,1 C 9,9 C 6,8 C 80 % 1002,9 hPa 0,0 l/m 0,00 h 0,00 h 157 W/m 27,8 km/h (4 Bft) 98,30 %
06.04.2022 13:00 10,3 C 10,0 C 6,9 C 80 % 1002,6 hPa 0,0 l/m 0,00 h 0,00 h 134 W/m 34,6 km/h (5 Bft) 98,31 %
06.04.2022 14:00 10,6 C 10,1 C 6,6 C 80 % 1002,0 hPa 0,0 l/m 0,00 h 0,50 h 128 W/m 34,0 km/h (5 Bft) 96,46 %
06.04.2022 15:00 10,9 C 10,7 C 7,3 C 79 % 1001,3 hPa 0,0 l/m 0,03 h 0,17 h 169 W/m 32,1 km/h (5 Bft) 97,31 %
06.04.2022 16:00 11,6 C 11,5 C 8,1 C 76 % 1000,3 hPa 0,0 l/m 0,17 h 0,00 h 215 W/m 40,0 km/h (6 Bft) 98,72 %
06.04.2022 17:00 11,4 C 11,1 C 7,7 C 76 % 999,7 hPa 0,0 l/m 0,00 h 0,00 h 84 W/m 34,3 km/h (5 Bft) 94,95 %
06.04.2022 18:00 11,4 C 10,9 C 7,3 C 77 % 999,0 hPa 0,0 l/m 0,00 h 0,00 h 52 W/m 31,5 km/h (5 Bft) 98,43 %
06.04.2022 19:00 11,4 C 10,6 C 7,0 C 77 % 998,4 hPa 0,0 l/m 0,00 h 0,27 h 18 W/m 28,1 km/h (4 Bft) 97,28 %
06.04.2022 20:00 10,6 C 9,5 C 5,0 C 83 % 997,9 hPa 0,2 l/m 0,00 h 0,57 h 0 W/m 22,5 km/h (4 Bft) 97,63 %
06.04.2022 21:00 10,2 C 9,1 C 5,0 C 87 % 997,6 hPa 0,4 l/m 0,00 h 0,57 h 0 W/m 25,5 km/h (4 Bft) 97,88 %
06.04.2022 22:00 10,2 C 9,4 C 5,0 C 87 % 997,2 hPa 0,0 l/m 0,00 h 0,07 h 0 W/m 26,6 km/h (4 Bft) 98,63 %
06.04.2022 23:00 10,2 C 9,4 C 5,7 C 85 % 996,6 hPa 0,0 l/m 0,00 h 0,00 h 0 W/m 28,5 km/h (4 Bft) 95,48 %
07.04.2022 00:00 9,9 C 8,7 C 5,5 C 87 % 995,9 hPa 0,6 l/m 0,00 h 0,40 h 0 W/m 29,8 km/h (5 Bft) 97,65 %
07.04.2022 01:00 9,3 C 8,3 C 5,0 C 92 % 994,9 hPa 0,2 l/m 0,00 h 0,53 h 0 W/m 30,6 km/h (5 Bft) 96,94 %
07.04.2022 02:00 9,2 C 8,3 C 4,6 C 90 % 994,2 hPa 0,0 l/m 0,00 h 0,30 h 0 W/m 27,6 km/h (4 Bft) 96,29 %
07.04.2022 03:00 9,7 C 8,8 C 5,1 C 87 % 993,2 hPa 0,0 l/m 0,00 h 0,00 h 0 W/m 32,8 km/h (5 Bft) 98,93 %
07.04.2022 04:00 9,8 C 8,9 C 5,4 C 88 % 992,3 hPa 0,2 l/m 0,00 h 0,80 h 0 W/m 34,9 km/h (5 Bft) 96,37 %
07.04.2022 05:00 10,0 C 9,3 C 5,9 C 86 % 991,0 hPa 0,0 l/m 0,00 h 0,30 h 0 W/m 37,2 km/h (5 Bft) 97,79 %
07.04.2022 06:00 10,0 C 8,9 C 5,7 C 86 % 989,8 hPa 0,8 l/m 0,00 h 0,63 h 0 W/m 30,0 km/h (5 Bft) 98,23 %
07.04.2022 07:00 9,5 C 8,5 C 5,1 C 92 % 988,4 hPa 0,4 l/m 0,00 h 0,60 h 12 W/m 37,4 km/h (5 Bft) 97,01 %
07.04.2022 08:00 9,6 C 8,7 C 5,1 C 90 % 987,0 hPa 0,2 l/m 0,00 h 0,73 h 64 W/m 42,6 km/h (6 Bft) 97,30 %
07.04.2022 09:00 10,1 C 9,4 C 5,7 C 90 % 985,0 hPa 0,4 l/m 0,03 h 0,77 h 77 W/m 43,6 km/h (6 Bft) 97,87 %
07.04.2022 10:00 10,8 C 10,0 C 6,6 C 91 % 983,4 hPa 0,2 l/m 0,03 h 0,67 h 170 W/m 51,7 km/h (7 Bft) 97,08 %
07.04.2022 11:00 10,2 C 9,0 C 6,4 C 93 % 983,6 hPa 4,8 l/m 0,00 h 0,97 h 70 W/m 31,1 km/h (5 Bft) 98,59 %
07.04.2022 12:00 10,2 C 10,5 C 6,9 C 91 % 983,9 hPa 0,2 l/m 0,50 h 0,30 h 349 W/m 24,8 km/h (4 Bft) 96,11 %
07.04.2022 13:00 12,7 C 14,1 C 9,1 C 72 % 984,4 hPa 0,0 l/m 0,77 h 0,00 h 711 W/m 28,6 km/h (4 Bft) 98,14 %
07.04.2022 14:00 13,1 C 13,6 C 9,3 C 63 % 985,2 hPa 0,2 l/m 0,20 h 0,30 h 273 W/m 31,5 km/h (5 Bft) 98,19 %
07.04.2022 15:00 10,8 C 12,1 C 7,1 C 79 % 986,4 hPa 0,2 l/m 0,27 h 0,17 h 307 W/m 27,1 km/h (4 Bft) 98,93 %
07.04.2022 16:00 11,0 C 11,2 C 6,9 C 73 % 987,0 hPa 0,2 l/m 0,13 h 0,23 h 168 W/m 25,1 km/h (4 Bft) 93,09 %
07.04.2022 17:00 9,6 C 9,1 C 5,2 C 78 % 987,7 hPa 0,6 l/m 0,07 h 0,57 h 86 W/m 31,6 km/h (5 Bft) 98,87 %
07.04.2022 18:00 7,7 C 6,5 C 2,5 C 84 % 988,6 hPa 1,0 l/m 0,00 h 0,97 h 18 W/m 38,2 km/h (5 Bft) 96,36 %
07.04.2022 19:00 8,2 C 6,9 C 2,5 C 77 % 989,0 hPa 0,2 l/m 0,23 h 0,20 h 32 W/m 30,6 km/h (5 Bft) 97,87 %
07.04.2022 20:00 9,0 C 8,1 C 3,7 C 76 % 989,7 hPa 0,0 l/m 0,00 h 0,50 h 7 W/m 24,3 km/h (4 Bft) 96,72 %
07.04.2022 21:00 9,0 C 8,0 C 4,2 C 76 % 991,0 hPa 0,0 l/m 0,00 h 0,43 h 0 W/m 26,7 km/h (4 Bft) 97,58 %
07.04.2022 22:00 7,3 C 6,2 C 2,4 C 86 % 992,9 hPa 0,8 l/m 0,00 h 0,40 h 0 W/m 27,4 km/h (4 Bft) 96,97 %
07.04.2022 23:00 7,1 C 6,1 C 2,6 C 86 % 993,9 hPa 0,0 l/m 0,00 h 0,10 h 0 W/m 23,4 km/h (4 Bft) 95,45 %
08.04.2022 00:00 7,1 C 6,1 C 3,2 C 86 % 995,3 hPa 0,0 l/m 0,00 h 0,03 h 0 W/m 20,0 km/h (4 Bft) 98,72 %
08.04.2022 01:00 6,9 C 6,0 C 3,1 C 85 % 996,6 hPa 0,0 l/m 0,00 h 0,00 h 0 W/m 25,7 km/h (4 Bft) 97,39 %
08.04.2022 02:00 6,2 C 5,4 C 2,4 C 87 % 997,7 hPa 0,0 l/m 0,00 h 0,00 h 0 W/m 22,0 km/h (4 Bft) 97,63 %
08.04.2022 03:00 5,6 C 4,9 C 2,1 C 89 % 998,7 hPa 0,0 l/m 0,00 h 0,00 h 0 W/m 17,7 km/h (3 Bft) 97,30 %
08.04.2022 04:00 5,3 C 4,6 C 2,0 C 90 % 999,4 hPa 0,0 l/m 0,00 h 0,00 h 0 W/m 15,1 km/h (3 Bft) 98,00 %
08.04.2022 05:00 5,0 C 4,3 C 1,7 C 90 % 999,8 hPa 0,0 l/m 0,00 h 0,00 h 0 W/m 11,5 km/h (2 Bft) 97,40 %
08.04.2022 06:00 4,7 C 3,9 C 1,5 C 91 % 1000,1 hPa 0,0 l/m 0,00 h 0,00 h 2 W/m 11,2 km/h (2 Bft) 97,21 %
08.04.2022 07:00 4,6 C 4,0 C 1,5 C 92 % 1000,3 hPa 0,0 l/m 0,00 h 0,00 h 26 W/m 7,1 km/h (2 Bft) 98,01 %
08.04.2022 08:00 5,2 C 5,2 C 2,4 C 92 % 1000,2 hPa 0,0 l/m 0,00 h 0,00 h 79 W/m 12,8 km/h (3 Bft) 98,36 %
08.04.2022 09:00 6,1 C 6,6 C 3,5 C 88 % 1000,0 hPa 0,0 l/m 0,30 h 0,00 h 188 W/m 11,4 km/h (2 Bft) 95,37 %
08.04.2022 10:00 6,9 C 7,2 C 4,2 C 84 % 999,8 hPa 0,0 l/m 0,00 h 0,00 h 193 W/m 7,3 km/h (2 Bft) 99,50 %
08.04.2022 11:00 7,5 C 8,2 C 4,9 C 79 % 999,1 hPa 0,0 l/m 0,00 h 0,00 h 254 W/m 9,6 km/h (2 Bft) 96,15 %
08.04.2022 12:00 7,9 C 8,3 C 5,0 C 75 % 998,7 hPa 0,0 l/m 0,00 h 0,00 h 226 W/m 9,9 km/h (2 Bft) 98,56 %
08.04.2022 13:00 8,2 C 8,5 C 5,2 C 71 % 998,0 hPa 0,0 l/m 0,00 h 0,00 h 240 W/m 10,0 km/h (2 Bft) 95,85 %
08.04.2022 14:00 8,4 C 8,5 C 5,1 C 67 % 997,4 hPa 0,0 l/m 0,00 h 0,00 h 238 W/m 8,4 km/h (2 Bft) 98,86 %
08.04.2022 15:00 8,3 C 8,6 C 5,1 C 65 % 997,2 hPa 0,0 l/m 0,00 h 0,00 h 218 W/m 7,8 km/h (2 Bft) 98,44 %
08.04.2022 16:00 8,6 C 9,0 C 5,4 C 65 % 997,1 hPa 0,0 l/m 0,00 h 0,00 h 230 W/m 8,9 km/h (2 Bft) 93,73 %
08.04.2022 17:00 8,7 C 8,5 C 5,1 C 66 % 997,2 hPa 0,0 l/m 0,00 h 0,00 h 143 W/m 6,4 km/h (2 Bft) 98,36 %
08.04.2022 18:00 8,5 C 8,2 C 4,7 C 70 % 997,5 hPa 0,0 l/m 0,00 h 0,00 h 102 W/m 6,4 km/h (2 Bft) 97,75 %
08.04.2022 19:00 8,1 C 7,4 C 4,1 C 74 % 997,7 hPa 0,0 l/m 0,00 h 0,00 h 25 W/m 4,1 km/h (1 Bft) 96,94 %
08.04.2022 20:00 7,5 C 6,8 C 3,4 C 75 % 997,8 hPa 0,0 l/m 0,00 h 0,00 h 6 W/m 7,7 km/h (2 Bft) 98,65 %
08.04.2022 21:00 7,1 C 6,3 C 2,9 C 75 % 998,5 hPa 0,0 l/m 0,00 h 0,00 h 0 W/m 15,3 km/h (3 Bft) 97,06 %
08.04.2022 22:00 6,6 C 5,8 C 2,4 C 79 % 999,4 hPa 0,0 l/m 0,00 h 0,00 h 0 W/m 13,0 km/h (3 Bft) 94,90 %
08.04.2022 23:00 6,1 C 5,3 C 1,9 C 78 % 1000,3 hPa 0,0 l/m 0,00 h 0,00 h 0 W/m 10,7 km/h (2 Bft) 98,52 %
09.04.2022 00:00 4,9 C 4,1 C 0,9 C 83 % 1001,8 hPa 0,0 l/m 0,00 h 0,00 h 0 W/m 8,4 km/h (2 Bft) 97,79 %
09.04.2022 01:00 4,2 C 3,3 C 0,6 C 86 % 1002,9 hPa 0,0 l/m 0,00 h 0,00 h 0 W/m 9,8 km/h (2 Bft) 94,54 %
09.04.2022 02:00 3,9 C 3,3 C 0,5 C 88 % 1004,1 hPa 0,0 l/m 0,00 h 0,00 h 0 W/m 10,9 km/h (2 Bft) 97,16 %
09.04.2022 03:00 3,8 C 3,2 C 0,5 C 89 % 1005,2 hPa 0,0 l/m 0,00 h 0,00 h 0 W/m 12,4 km/h (3 Bft) 97,80 %
09.04.2022 04:00 3,5 C 2,8 C 0,0 C 90 % 1006,3 hPa 0,0 l/m 0,00 h 0,00 h 0 W/m 10,0 km/h (2 Bft) 97,41 %
09.04.2022 05:00 3,7 C 3,2 C 0,5 C 90 % 1007,3 hPa 0,0 l/m 0,00 h 0,00 h 0 W/m 12,6 km/h (3 Bft) 97,00 %
09.04.2022 06:00 3,8 C 3,2 C 0,6 C 89 % 1008,2 hPa 0,0 l/m 0,00 h 0,00 h 4 W/m 11,8 km/h (2 Bft) 95,42 %
09.04.2022 07:00 3,6 C 3,0 C 0,2 C 89 % 1009,1 hPa 0,0 l/m 0,00 h 0,00 h 18 W/m 14,6 km/h (3 Bft) 95,83 %
09.04.2022 08:00 4,2 C 4,2 C 1,1 C 89 % 1010,1 hPa 0,0 l/m 0,10 h 0,00 h 87 W/m 16,8 km/h (3 Bft) 95,87 %
09.04.2022 09:00 5,8 C 7,3 C 2,7 C 84 % 1010,9 hPa 0,0 l/m 0,80 h 0,00 h 347 W/m 18,3 km/h (3 Bft) 99,69 %
09.04.2022 10:00 6,4 C 6,8 C 3,3 C 83 % 1011,7 hPa 0,0 l/m 0,30 h 0,23 h 212 W/m 18,9 km/h (3 Bft) 96,35 %
09.04.2022 11:00 7,8 C 8,9 C 5,9 C 80 % 1012,1 hPa 0,0 l/m 0,73 h 0,00 h 462 W/m 16,3 km/h (3 Bft) 98,38 %
09.04.2022 12:00 6,2 C 6,2 C 2,8 C 80 % 1012,5 hPa 1,0 l/m 0,27 h 0,57 h 212 W/m 25,5 km/h (4 Bft) 95,96 %
09.04.2022 13:00 9,6 C 12,6 C 6,9 C 74 % 1012,4 hPa 0,0 l/m 0,93 h 0,00 h 769 W/m 24,2 km/h (4 Bft) 97,40 %
09.04.2022 14:00 10,7 C 13,1 C 6,7 C 60 % 1012,5 hPa 0,0 l/m 0,63 h 0,00 h 615 W/m 28,3 km/h (4 Bft) 98,57 %
09.04.2022 15:00 11,3 C 13,8 C 7,0 C 53 % 1012,8 hPa 0,0 l/m 0,83 h 0,00 h 664 W/m 30,0 km/h (5 Bft) 98,72 %
09.04.2022 16:00 10,5 C 12,7 C 6,4 C 60 % 1013,2 hPa 0,0 l/m 0,57 h 0,00 h 359 W/m 27,1 km/h (4 Bft) 97,51 %
09.04.2022 17:00 10,4 C 11,6 C 6,4 C 57 % 1013,6 hPa 0,0 l/m 0,73 h 0,00 h 259 W/m 27,4 km/h (4 Bft) 96,26 %
09.04.2022 18:00 9,4 C 9,4 C 5,3 C 56 % 1014,1 hPa 0,0 l/m 0,23 h 0,00 h 118 W/m 23,3 km/h (4 Bft) 98,06 %
09.04.2022 19:00 8,5 C 7,8 C 4,2 C 59 % 1014,6 hPa 0,0 l/m 0,00 h 0,00 h 40 W/m 16,7 km/h (3 Bft) 97,08 %
09.04.2022 20:00 6,6 C 5,6 C 2,3 C 73 % 1015,6 hPa 0,0 l/m 0,00 h 0,00 h 7 W/m 22,4 km/h (4 Bft) 97,88 %
09.04.2022 21:00 4,8 C 4,0 C 0,8 C 80 % 1016,3 hPa 0,0 l/m 0,00 h 0,00 h 0 W/m 9,6 km/h (2 Bft) 96,74 %
09.04.2022 22:00 4,3 C 3,6 C 0,4 C 81 % 1016,9 hPa 0,0 l/m 0,00 h 0,00 h 0 W/m 8,5 km/h (2 Bft) 93,57 %
09.04.2022 23:00 4,0 C 3,3 C 0,3 C 83 % 1017,4 hPa 0,0 l/m 0,00 h 0,00 h 0 W/m 7,9 km/h (2 Bft) 99,43 %
10.04.2022 00:00 3,5 C 2,5 C -0,3 C 84 % 1017,9 hPa 0,0 l/m 0,00 h 0,00 h 0 W/m 6,4 km/h (2 Bft) 97,26 %
10.04.2022 01:00 2,8 C 2,0 C -0,9 C 87 % 1018,3 hPa 0,0 l/m 0,00 h 0,00 h 0 W/m 5,9 km/h (2 Bft) 97,38 %
10.04.2022 02:00 2,6 C 1,8 C -1,1 C 88 % 1018,6 hPa 0,0 l/m 0,00 h 0,00 h 0 W/m 5,8 km/h (2 Bft) 95,82 %
10.04.2022 03:00 2,4 C 1,5 C -1,4 C 87 % 1018,6 hPa 0,0 l/m 0,00 h 0,00 h 0 W/m 3,7 km/h (1 Bft) 97,51 %
10.04.2022 04:00 1,9 C 0,9 C -2,0 C 88 % 1018,8 hPa 0,0 l/m 0,00 h 0,00 h 0 W/m 2,7 km/h (1 Bft) 99,15 %
10.04.2022 05:00 1,8 C 1,0 C -1,8 C 90 % 1019,1 hPa 0,0 l/m 0,00 h 0,00 h 0 W/m 2,8 km/h (1 Bft) 95,73 %
10.04.2022 06:00 1,4 C 0,3 C -2,3 C 90 % 1019,5 hPa 0,0 l/m 0,00 h 0,00 h 4 W/m 1,7 km/h (1 Bft) 97,57 %
10.04.2022 07:00 0,9 C -0,1 C -2,8 C 90 % 1020,0 hPa 0,0 l/m 0,00 h 0,00 h 19 W/m 0,5 km/h (0 Bft) 98,43 %
10.04.2022 08:00 2,2 C 2,4 C -0,8 C 92 % 1020,5 hPa 0,0 l/m 0,00 h 0,00 h 39 W/m 6,5 km/h (2 Bft) 96,50 %
10.04.2022 09:00 5,2 C 8,1 C 1,7 C 86 % 1020,9 hPa 0,0 l/m 1,02 h 0,00 h 389 W/m 10,8 km/h (2 Bft) 95,69 %
10.04.2022 10:00 7,5 C 10,2 C 3,9 C 76 % 1021,5 hPa 0,0 l/m 0,40 h 0,00 h 289 W/m 13,3 km/h (3 Bft) 97,15 %
10.04.2022 11:00 8,5 C 9,4 C 5,4 C 69 % 1021,7 hPa 0,0 l/m 0,43 h 0,00 h 323 W/m 16,7 km/h (3 Bft) 94,14 %
10.04.2022 12:00 9,2 C 11,3 C 8,3 C 67 % 1021,7 hPa 0,0 l/m 0,57 h 0,00 h 509 W/m 17,4 km/h (3 Bft) 99,55 %
10.04.2022 13:00 11,2 C 14,5 C 8,3 C 61 % 1021,6 hPa 0,0 l/m 0,87 h 0,00 h 754 W/m 16,1 km/h (3 Bft) 97,43 %
10.04.2022 14:00 11,6 C 14,5 C 7,2 C 55 % 1021,5 hPa 0,0 l/m 0,63 h 0,00 h 551 W/m 16,5 km/h (3 Bft) 98,37 %
10.04.2022 15:00 12,9 C 18,8 C 7,8 C 50 % 1021,2 hPa 0,0 l/m 1,00 h 0,00 h 753 W/m 13,1 km/h (3 Bft) 97,93 %
10.04.2022 16:00 13,5 C 19,9 C 8,4 C 48 % 1020,9 hPa 0,0 l/m 0,93 h 0,00 h 616 W/m 11,9 km/h (2 Bft) 96,80 %
10.04.2022 17:00 13,5 C 19,7 C 8,6 C 47 % 1020,7 hPa 0,0 l/m 1,00 h 0,00 h 457 W/m 9,2 km/h (2 Bft) 97,51 %
10.04.2022 18:00 13,3 C 16,8 C 8,3 C 46 % 1020,5 hPa 0,0 l/m 0,77 h 0,00 h 218 W/m 7,4 km/h (2 Bft) 97,90 %
10.04.2022 19:00 11,5 C 10,5 C 6,4 C 49 % 1020,4 hPa 0,0 l/m 0,00 h 0,00 h 42 W/m 2,8 km/h (1 Bft) 96,85 %
10.04.2022 20:00 9,8 C 8,3 C 4,7 C 54 % 1020,5 hPa 0,0 l/m 0,00 h 0,00 h 9 W/m 4,3 km/h (1 Bft) 97,96 %
10.04.2022 21:00 8,5 C 7,1 C 3,6 C 60 % 1020,8 hPa 0,0 l/m 0,00 h 0,00 h 0 W/m 3,7 km/h (1 Bft) 98,57 %
10.04.2022 22:00 7,3 C 5,8 C 2,3 C 65 % 1020,8 hPa 0,0 l/m 0,00 h 0,00 h 0 W/m 2,2 km/h (1 Bft) 97,02 %
10.04.2022 23:00 6,3 C 4,6 C 1,0 C 69 % 1020,7 hPa 0,0 l/m 0,00 h 0,00 h 0 W/m 2,2 km/h (1 Bft) 96,95 %
Min-Datum _ 10.04.22 10.04.22 10.04.22 10.04.22 07.04.22 - - - - 04.04.22 09.04.22
_ Min-Zeit 07:30 06:58 07:18 18:08 10:50 - - - - 00:42 06:41
Minimum _ 0,7 C -0,6 C -3,3 C 44 % 982,8 hPa - - - - 0,0 km/h (0 Bft) 9,09 %
Max-Datum _ 10.04.22 10.04.22 10.04.22 05.04.22 10.04.22 05.04.22 04.04.22 05.04.22 10.04.22 07.04.22 04.04.22
_ Max-Zeit 16:04 16:04 12:44 04:04 11:04 21:12 10:39 04:31 13:24 10:38 00:46
Maximum _ 14,1 C 21,7 C 12,2 C 99 % 1021,8 hPa 5,6 l/m 0,08 h 0,08 h 1005 W/m 77,2 km/h
S-SW (9 Bft)
100,00 %
Durchschnitt _ 7,8 C 7,5 C 4,1 C 83 % 1005,6 hPa #33,6 l/m #18:25 h #34:26 h 181 W/m 19,0 km/h (3 Bft) 97,05 %
© 2022 W. Hausmann